Terminal Aerodrome Forecast
Issued by NWS Topeka, KS

Home | Current Version | Previous Version | Graphics & Text | Print | Product List | Glossary On
Versions: 1 2 3 4 5 6 7 8 9 10 11 12 13 14 15 16 17 18
878
FTUS43 KTOP 182320
TAFTOP
TAF
KTOP 182320Z 1900/1924 VRB03KT P6SM FEW250
     FM191100 16003KT 3SM BR SCT150
     FM191400 16007KT 5SM BR OVC013
     FM191800 17010KT P6SM BKN024=

USA.gov is the U.S. government's official web portal to all federal, state and local government web resources and services.